sensor_id;sensor_type;location;lat;lon;timestamp;P1;durP1;ratioP1;P2;durP2;ratioP2
64641;SDS011;59936;51.490;5.436;2023-04-15T00:02:03;7.80;;;5.20;;
64641;SDS011;59936;51.490;5.436;2023-04-15T00:04:38;12.80;;;5.00;;
64641;SDS011;59936;51.490;5.436;2023-04-15T00:07:04;9.10;;;4.30;;
64641;SDS011;59936;51.490;5.436;2023-04-15T00:09:30;9.50;;;5.40;;
64641;SDS011;59936;51.490;5.436;2023-04-15T00:11:56;9.30;;;5.90;;
64641;SDS011;59936;51.490;5.436;2023-04-15T00:14:22;7.40;;;5.50;;
64641;SDS011;59936;51.490;5.436;2023-04-15T00:16:48;13.20;;;5.30;;
64641;SDS011;59936;51.490;5.436;2023-04-15T00:19:14;9.60;;;6.50;;
64641;SDS011;59936;51.490;5.436;2023-04-15T00:21:39;7.90;;;6.00;;
64641;SDS011;59936;51.490;5.436;2023-04-15T00:24:05;7.80;;;6.20;;
64641;SDS011;59936;51.490;5.436;2023-04-15T00:26:31;11.10;;;6.70;;
64641;SDS011;59936;51.490;5.436;2023-04-15T00:28:57;12.10;;;6.70;;
64641;SDS011;59936;51.490;5.436;2023-04-15T00:31:23;12.10;;;7.50;;
64641;SDS011;59936;51.490;5.436;2023-04-15T00:33:49;12.40;;;7.00;;
64641;SDS011;59936;51.490;5.436;2023-04-15T00:36:15;10.20;;;6.60;;
64641;SDS011;59936;51.490;5.436;2023-04-15T00:38:40;11.60;;;6.50;;
64641;SDS011;59936;51.490;5.436;2023-04-15T00:41:06;9.30;;;6.80;;
64641;SDS011;59936;51.490;5.436;2023-04-15T00:43:33;11.00;;;6.50;;
64641;SDS011;59936;51.490;5.436;2023-04-15T00:45:59;12.70;;;5.40;;
64641;SDS011;59936;51.490;5.436;2023-04-15T00:48:26;9.50;;;6.50;;
64641;SDS011;59936;51.490;5.436;2023-04-15T00:50:52;10.40;;;5.80;;
64641;SDS011;59936;51.490;5.436;2023-04-15T00:53:18;17.40;;;6.30;;
64641;SDS011;59936;51.490;5.436;2023-04-15T00:55:44;13.70;;;6.40;;
64641;SDS011;59936;51.490;5.436;2023-04-15T00:58:10;16.10;;;7.40;;
64641;SDS011;59936;51.490;5.436;2023-04-15T01:00:36;12.00;;;5.80;;
64641;SDS011;59936;51.490;5.436;2023-04-15T01:03:02;12.30;;;7.50;;
64641;SDS011;59936;51.490;5.436;2023-04-15T01:05:28;8.80;;;6.40;;
64641;SDS011;59936;51.490;5.436;2023-04-15T01:07:54;11.20;;;6.90;;
64641;SDS011;59936;51.490;5.436;2023-04-15T01:10:20;13.90;;;7.00;;
64641;SDS011;59936;51.490;5.436;2023-04-15T01:12:46;10.90;;;7.00;;
64641;SDS011;59936;51.490;5.436;2023-04-15T01:15:12;14.80;;;7.20;;
64641;SDS011;59936;51.490;5.436;2023-04-15T01:17:38;12.90;;;7.20;;
64641;SDS011;59936;51.490;5.436;2023-04-15T01:20:04;9.80;;;6.50;;
64641;SDS011;59936;51.490;5.436;2023-04-15T01:22:31;11.30;;;7.20;;
64641;SDS011;59936;51.490;5.436;2023-04-15T01:25:04;10.80;;;7.00;;
64641;SDS011;59936;51.490;5.436;2023-04-15T01:27:34;9.30;;;6.50;;
64641;SDS011;59936;51.490;5.436;2023-04-15T01:30:03;11.60;;;7.60;;
64641;SDS011;59936;51.490;5.436;2023-04-15T01:32:30;10.00;;;7.20;;
64641;SDS011;59936;51.490;5.436;2023-04-15T01:34:56;13.20;;;7.90;;
64641;SDS011;59936;51.490;5.436;2023-04-15T01:37:22;8.30;;;6.80;;
64641;SDS011;59936;51.490;5.436;2023-04-15T01:39:49;9.00;;;7.30;;
64641;SDS011;59936;51.490;5.436;2023-04-15T01:42:14;19.50;;;8.10;;
64641;SDS011;59936;51.490;5.436;2023-04-15T01:44:40;14.40;;;7.50;;
64641;SDS011;59936;51.490;5.436;2023-04-15T01:47:06;12.80;;;7.40;;
64641;SDS011;59936;51.490;5.436;2023-04-15T01:49:32;10.10;;;8.00;;
64641;SDS011;59936;51.490;5.436;2023-04-15T01:51:58;14.90;;;8.40;;
64641;SDS011;59936;51.490;5.436;2023-04-15T01:54:24;18.30;;;9.20;;
64641;SDS011;59936;51.490;5.436;2023-04-15T01:56:50;13.50;;;9.00;;
64641;SDS011;59936;51.490;5.436;2023-04-15T01:59:16;13.10;;;7.80;;
64641;SDS011;59936;51.490;5.436;2023-04-15T02:01:42;10.50;;;7.80;;
64641;SDS011;59936;51.490;5.436;2023-04-15T02:04:08;9.40;;;8.00;;
64641;SDS011;59936;51.490;5.436;2023-04-15T02:06:34;9.10;;;8.20;;
64641;SDS011;59936;51.490;5.436;2023-04-15T02:09:00;10.30;;;7.20;;
64641;SDS011;59936;51.490;5.436;2023-04-15T02:11:26;12.80;;;8.20;;
64641;SDS011;59936;51.490;5.436;2023-04-15T02:13:51;11.80;;;8.30;;
64641;SDS011;59936;51.490;5.436;2023-04-15T02:16:17;13.70;;;8.80;;
64641;SDS011;59936;51.490;5.436;2023-04-15T02:18:44;13.40;;;8.60;;
64641;SDS011;59936;51.490;5.436;2023-04-15T02:21:11;12.70;;;9.00;;
64641;SDS011;59936;51.490;5.436;2023-04-15T02:26:03;16.15;;;7.80;;
64641;SDS011;59936;51.490;5.436;2023-04-15T02:28:29;11.20;;;8.00;;
64641;SDS011;59936;51.490;5.436;2023-04-15T02:30:54;15.90;;;8.90;;
64641;SDS011;59936;51.490;5.436;2023-04-15T02:33:20;10.50;;;8.90;;
64641;SDS011;59936;51.490;5.436;2023-04-15T02:35:46;12.90;;;9.70;;
64641;SDS011;59936;51.490;5.436;2023-04-15T02:38:12;13.00;;;9.70;;
64641;SDS011;59936;51.490;5.436;2023-04-15T02:40:38;14.80;;;9.30;;
64641;SDS011;59936;51.490;5.436;2023-04-15T02:43:04;17.40;;;10.20;;
64641;SDS011;59936;51.490;5.436;2023-04-15T02:45:30;16.90;;;10.20;;
64641;SDS011;59936;51.490;5.436;2023-04-15T02:47:56;15.90;;;9.40;;
64641;SDS011;59936;51.490;5.436;2023-04-15T02:50:21;14.20;;;9.20;;
64641;SDS011;59936;51.490;5.436;2023-04-15T02:52:47;11.40;;;9.20;;
64641;SDS011;59936;51.490;5.436;2023-04-15T02:55:13;11.00;;;8.80;;
64641;SDS011;59936;51.490;5.436;2023-04-15T02:57:39;17.10;;;8.90;;
64641;SDS011;59936;51.490;5.436;2023-04-15T03:00:05;15.30;;;9.40;;
64641;SDS011;59936;51.490;5.436;2023-04-15T03:02:33;13.40;;;10.10;;
64641;SDS011;59936;51.490;5.436;2023-04-15T03:05:00;13.20;;;9.70;;
64641;SDS011;59936;51.490;5.436;2023-04-15T03:07:26;16.10;;;9.30;;
64641;SDS011;59936;51.490;5.436;2023-04-15T03:09:51;11.10;;;9.50;;
64641;SDS011;59936;51.490;5.436;2023-04-15T03:12:17;11.80;;;8.60;;
64641;SDS011;59936;51.490;5.436;2023-04-15T03:14:43;11.10;;;9.00;;
64641;SDS011;59936;51.490;5.436;2023-04-15T03:17:09;13.60;;;9.10;;
64641;SDS011;59936;51.490;5.436;2023-04-15T03:19:35;15.10;;;10.70;;
64641;SDS011;59936;51.490;5.436;2023-04-15T03:22:01;15.10;;;10.00;;
64641;SDS011;59936;51.490;5.436;2023-04-15T03:24:26;16.00;;;10.10;;
64641;SDS011;59936;51.490;5.436;2023-04-15T03:26:52;11.10;;;9.90;;
64641;SDS011;59936;51.490;5.436;2023-04-15T03:29:18;13.40;;;10.20;;
64641;SDS011;59936;51.490;5.436;2023-04-15T03:31:44;12.10;;;10.00;;
64641;SDS011;59936;51.490;5.436;2023-04-15T03:34:10;12.90;;;9.60;;
64641;SDS011;59936;51.490;5.436;2023-04-15T03:36:36;13.60;;;10.40;;
64641;SDS011;59936;51.490;5.436;2023-04-15T03:39:02;19.10;;;10.50;;
64641;SDS011;59936;51.490;5.436;2023-04-15T03:41:28;18.00;;;10.60;;
64641;SDS011;59936;51.490;5.436;2023-04-15T03:43:54;14.30;;;9.90;;
64641;SDS011;59936;51.490;5.436;2023-04-15T03:46:19;11.30;;;10.10;;
64641;SDS011;59936;51.490;5.436;2023-04-15T03:48:46;11.30;;;10.10;;
64641;SDS011;59936;51.490;5.436;2023-04-15T03:51:12;11.20;;;9.00;;
64641;SDS011;59936;51.490;5.436;2023-04-15T03:53:38;16.30;;;10.20;;
64641;SDS011;59936;51.490;5.436;2023-04-15T03:56:04;16.30;;;10.60;;
64641;SDS011;59936;51.490;5.436;2023-04-15T04:00:55;16.95;;;9.15;;
64641;SDS011;59936;51.490;5.436;2023-04-15T04:03:21;13.20;;;9.60;;
64641;SDS011;59936;51.490;5.436;2023-04-15T04:05:47;14.70;;;10.10;;
64641;SDS011;59936;51.490;5.436;2023-04-15T04:08:13;19.60;;;10.90;;
64641;SDS011;59936;51.490;5.436;2023-04-15T04:10:39;14.30;;;11.00;;
64641;SDS011;59936;51.490;5.436;2023-04-15T04:13:05;16.40;;;11.00;;
64641;SDS011;59936;51.490;5.436;2023-04-15T04:15:31;11.10;;;9.70;;
64641;SDS011;59936;51.490;5.436;2023-04-15T04:17:57;17.10;;;11.50;;
64641;SDS011;59936;51.490;5.436;2023-04-15T04:20:22;14.50;;;11.70;;
64641;SDS011;59936;51.490;5.436;2023-04-15T04:22:48;16.70;;;11.70;;
64641;SDS011;59936;51.490;5.436;2023-04-15T04:25:14;15.50;;;12.20;;
64641;SDS011;59936;51.490;5.436;2023-04-15T04:27:40;21.10;;;13.60;;
64641;SDS011;59936;51.490;5.436;2023-04-15T04:30:06;16.10;;;13.60;;
64641;SDS011;59936;51.490;5.436;2023-04-15T04:32:32;27.50;;;17.30;;
64641;SDS011;59936;51.490;5.436;2023-04-15T04:34:58;22.30;;;18.10;;
64641;SDS011;59936;51.490;5.436;2023-04-15T04:37:24;23.30;;;17.30;;
64641;SDS011;59936;51.490;5.436;2023-04-15T04:39:50;26.30;;;18.60;;
64641;SDS011;59936;51.490;5.436;2023-04-15T04:42:16;23.20;;;19.30;;
64641;SDS011;59936;51.490;5.436;2023-04-15T04:44:42;20.00;;;17.90;;
64641;SDS011;59936;51.490;5.436;2023-04-15T04:47:07;21.40;;;16.70;;
64641;SDS011;59936;51.490;5.436;2023-04-15T04:49:33;25.90;;;17.40;;
64641;SDS011;59936;51.490;5.436;2023-04-15T04:51:59;20.10;;;16.30;;
64641;SDS011;59936;51.490;5.436;2023-04-15T04:54:25;23.40;;;16.20;;
64641;SDS011;59936;51.490;5.436;2023-04-15T04:56:51;22.00;;;15.70;;
64641;SDS011;59936;51.490;5.436;2023-04-15T04:59:17;24.10;;;15.40;;
64641;SDS011;59936;51.490;5.436;2023-04-15T05:01:43;20.30;;;16.90;;
64641;SDS011;59936;51.490;5.436;2023-04-15T05:04:09;18.20;;;14.30;;
64641;SDS011;59936;51.490;5.436;2023-04-15T05:06:35;21.60;;;15.00;;
64641;SDS011;59936;51.490;5.436;2023-04-15T05:09:00;18.50;;;15.50;;
64641;SDS011;59936;51.490;5.436;2023-04-15T05:11:27;21.20;;;15.80;;
64641;SDS011;59936;51.490;5.436;2023-04-15T05:16:18;18.10;;;12.35;;
64641;SDS011;59936;51.490;5.436;2023-04-15T05:18:44;18.00;;;14.40;;
64641;SDS011;59936;51.490;5.436;2023-04-15T05:21:10;19.10;;;15.40;;
64641;SDS011;59936;51.490;5.436;2023-04-15T05:23:36;22.10;;;16.70;;
64641;SDS011;59936;51.490;5.436;2023-04-15T05:26:02;18.90;;;15.50;;
64641;SDS011;59936;51.490;5.436;2023-04-15T05:28:28;19.10;;;15.90;;
64641;SDS011;59936;51.490;5.436;2023-04-15T05:30:54;21.20;;;16.60;;
64641;SDS011;59936;51.490;5.436;2023-04-15T05:33:20;20.60;;;15.40;;
64641;SDS011;59936;51.490;5.436;2023-04-15T05:35:46;23.00;;;14.90;;
64641;SDS011;59936;51.490;5.436;2023-04-15T05:38:12;21.50;;;15.30;;
64641;SDS011;59936;51.490;5.436;2023-04-15T05:40:37;17.10;;;14.60;;
64641;SDS011;59936;51.490;5.436;2023-04-15T05:43:03;16.10;;;13.00;;
64641;SDS011;59936;51.490;5.436;2023-04-15T05:45:29;22.00;;;14.10;;
64641;SDS011;59936;51.490;5.436;2023-04-15T05:47:55;21.20;;;14.30;;
64641;SDS011;59936;51.490;5.436;2023-04-15T05:50:21;19.90;;;14.20;;
64641;SDS011;59936;51.490;5.436;2023-04-15T05:52:47;17.10;;;14.60;;
64641;SDS011;59936;51.490;5.436;2023-04-15T05:55:13;15.50;;;12.80;;
64641;SDS011;59936;51.490;5.436;2023-04-15T05:57:38;23.00;;;13.80;;
64641;SDS011;59936;51.490;5.436;2023-04-15T06:00:05;19.10;;;14.10;;
64641;SDS011;59936;51.490;5.436;2023-04-15T06:02:31;17.00;;;13.20;;
64641;SDS011;59936;51.490;5.436;2023-04-15T06:04:57;17.20;;;11.90;;
64641;SDS011;59936;51.490;5.436;2023-04-15T06:07:23;19.60;;;13.10;;
64641;SDS011;59936;51.490;5.436;2023-04-15T06:09:49;18.70;;;13.10;;
64641;SDS011;59936;51.490;5.436;2023-04-15T06:12:15;18.50;;;12.00;;
64641;SDS011;59936;51.490;5.436;2023-04-15T06:14:41;16.90;;;12.30;;
64641;SDS011;59936;51.490;5.436;2023-04-15T06:17:07;16.00;;;12.00;;
64641;SDS011;59936;51.490;5.436;2023-04-15T06:19:33;14.30;;;11.40;;
64641;SDS011;59936;51.490;5.436;2023-04-15T06:21:59;12.40;;;9.90;;
64641;SDS011;59936;51.490;5.436;2023-04-15T06:24:25;16.90;;;12.10;;
64641;SDS011;59936;51.490;5.436;2023-04-15T06:26:51;13.10;;;10.20;;
64641;SDS011;59936;51.490;5.436;2023-04-15T06:29:17;12.30;;;10.70;;
64641;SDS011;59936;51.490;5.436;2023-04-15T06:31:43;14.80;;;9.50;;
64641;SDS011;59936;51.490;5.436;2023-04-15T06:34:09;14.10;;;10.20;;
64641;SDS011;59936;51.490;5.436;2023-04-15T06:36:35;14.90;;;10.10;;
64641;SDS011;59936;51.490;5.436;2023-04-15T06:39:00;15.10;;;9.60;;
64641;SDS011;59936;51.490;5.436;2023-04-15T06:41:26;10.80;;;8.20;;
64641;SDS011;59936;51.490;5.436;2023-04-15T06:43:52;11.40;;;8.40;;
64641;SDS011;59936;51.490;5.436;2023-04-15T06:48:44;10.75;;;7.95;;
64641;SDS011;59936;51.490;5.436;2023-04-15T06:51:10;9.70;;;8.00;;
64641;SDS011;59936;51.490;5.436;2023-04-15T06:53:35;11.00;;;8.90;;
64641;SDS011;59936;51.490;5.436;2023-04-15T06:56:01;10.90;;;8.90;;
64641;SDS011;59936;51.490;5.436;2023-04-15T06:58:27;9.70;;;7.40;;
64641;SDS011;59936;51.490;5.436;2023-04-15T07:00:53;10.90;;;8.10;;
64641;SDS011;59936;51.490;5.436;2023-04-15T07:05:44;12.15;;;8.30;;
64641;SDS011;59936;51.490;5.436;2023-04-15T07:10:36;8.90;;;8.00;;
64641;SDS011;59936;51.490;5.436;2023-04-15T07:15:28;8.50;;;6.50;;
64641;SDS011;59936;51.490;5.436;2023-04-15T07:20:20;10.90;;;8.10;;
64641;SDS011;59936;51.490;5.436;2023-04-15T07:25:11;13.50;;;6.95;;
64641;SDS011;59936;51.490;5.436;2023-04-15T07:30:03;9.40;;;8.00;;
64641;SDS011;59936;51.490;5.436;2023-04-15T07:32:29;8.90;;;7.80;;
64641;SDS011;59936;51.490;5.436;2023-04-15T07:37:21;11.35;;;7.70;;
64641;SDS011;59936;51.490;5.436;2023-04-15T07:39:46;8.30;;;7.30;;
64641;SDS011;59936;51.490;5.436;2023-04-15T07:42:12;12.80;;;7.20;;
64641;SDS011;59936;51.490;5.436;2023-04-15T07:44:38;8.00;;;7.20;;
64641;SDS011;59936;51.490;5.436;2023-04-15T07:47:04;7.50;;;6.70;;
64641;SDS011;59936;51.490;5.436;2023-04-15T07:49:30;7.40;;;6.60;;
64641;SDS011;59936;51.490;5.436;2023-04-15T07:51:56;7.50;;;6.70;;
64641;SDS011;59936;51.490;5.436;2023-04-15T07:54:22;9.70;;;7.40;;
64641;SDS011;59936;51.490;5.436;2023-04-15T07:56:48;7.40;;;6.70;;
64641;SDS011;59936;51.490;5.436;2023-04-15T07:59:14;8.00;;;6.90;;
64641;SDS011;59936;51.490;5.436;2023-04-15T08:01:40;7.90;;;6.50;;
64641;SDS011;59936;51.490;5.436;2023-04-15T08:04:06;8.00;;;6.50;;
64641;SDS011;59936;51.490;5.436;2023-04-15T08:06:32;7.20;;;6.50;;
64641;SDS011;59936;51.490;5.436;2023-04-15T08:08:58;8.20;;;7.00;;
64641;SDS011;59936;51.490;5.436;2023-04-15T08:11:24;7.60;;;6.00;;
64641;SDS011;59936;51.490;5.436;2023-04-15T08:13:50;17.20;;;6.40;;
64641;SDS011;59936;51.490;5.436;2023-04-15T08:18:43;7.10;;;6.00;;
64641;SDS011;59936;51.490;5.436;2023-04-15T08:21:09;8.30;;;5.70;;
64641;SDS011;59936;51.490;5.436;2023-04-15T08:23:36;6.30;;;5.70;;
64641;SDS011;59936;51.490;5.436;2023-04-15T08:26:02;6.10;;;5.30;;
64641;SDS011;59936;51.490;5.436;2023-04-15T08:28:28;6.70;;;5.30;;
64641;SDS011;59936;51.490;5.436;2023-04-15T08:30:54;9.10;;;5.90;;
64641;SDS011;59936;51.490;5.436;2023-04-15T08:33:20;7.70;;;5.40;;
64641;SDS011;59936;51.490;5.436;2023-04-15T08:35:45;6.50;;;5.90;;
64641;SDS011;59936;51.490;5.436;2023-04-15T08:38:11;6.20;;;5.60;;
64641;SDS011;59936;51.490;5.436;2023-04-15T08:40:40;6.00;;;5.40;;
64641;SDS011;59936;51.490;5.436;2023-04-15T08:43:11;5.80;;;5.30;;
64641;SDS011;59936;51.490;5.436;2023-04-15T08:45:42;7.40;;;5.50;;
64641;SDS011;59936;51.490;5.436;2023-04-15T08:48:08;6.00;;;5.30;;
64641;SDS011;59936;51.490;5.436;2023-04-15T08:50:40;5.50;;;4.90;;
64641;SDS011;59936;51.490;5.436;2023-04-15T08:53:06;8.00;;;5.80;;
64641;SDS011;59936;51.490;5.436;2023-04-15T08:55:32;6.20;;;5.30;;
64641;SDS011;59936;51.490;5.436;2023-04-15T08:58:00;7.20;;;4.80;;
64641;SDS011;59936;51.490;5.436;2023-04-15T09:00:27;9.20;;;5.00;;
64641;SDS011;59936;51.490;5.436;2023-04-15T09:02:54;5.40;;;4.90;;
64641;SDS011;59936;51.490;5.436;2023-04-15T09:05:21;5.20;;;4.70;;
64641;SDS011;59936;51.490;5.436;2023-04-15T09:07:47;4.70;;;4.30;;
64641;SDS011;59936;51.490;5.436;2023-04-15T09:10:13;5.70;;;4.20;;
64641;SDS011;59936;51.490;5.436;2023-04-15T09:12:39;4.40;;;4.00;;
64641;SDS011;59936;51.490;5.436;2023-04-15T09:15:05;5.20;;;4.70;;
64641;SDS011;59936;51.490;5.436;2023-04-15T09:17:31;5.80;;;4.20;;
64641;SDS011;59936;51.490;5.436;2023-04-15T09:20:11;7.10;;;4.50;;
64641;SDS011;59936;51.490;5.436;2023-04-15T09:22:41;4.90;;;3.80;;
64641;SDS011;59936;51.490;5.436;2023-04-15T09:27:47;4.20;;;3.50;;
64641;SDS011;59936;51.490;5.436;2023-04-15T09:30:17;4.40;;;3.60;;
64641;SDS011;59936;51.490;5.436;2023-04-15T09:35:22;4.30;;;3.90;;
64641;SDS011;59936;51.490;5.436;2023-04-15T09:37:49;5.30;;;4.00;;
64641;SDS011;59936;51.490;5.436;2023-04-15T09:43:00;4.70;;;4.10;;
64641;SDS011;59936;51.490;5.436;2023-04-15T09:45:26;4.20;;;3.90;;
64641;SDS011;59936;51.490;5.436;2023-04-15T09:47:52;4.60;;;4.20;;
64641;SDS011;59936;51.490;5.436;2023-04-15T09:50:19;4.20;;;3.80;;
64641;SDS011;59936;51.490;5.436;2023-04-15T09:52:46;5.70;;;4.30;;
64641;SDS011;59936;51.490;5.436;2023-04-15T09:55:12;4.60;;;4.20;;
64641;SDS011;59936;51.490;5.436;2023-04-15T09:57:39;5.50;;;3.90;;
64641;SDS011;59936;51.490;5.436;2023-04-15T10:00:06;5.30;;;3.80;;
64641;SDS011;59936;51.490;5.436;2023-04-15T10:02:33;4.70;;;4.00;;
64641;SDS011;59936;51.490;5.436;2023-04-15T10:05:00;4.40;;;3.80;;
64641;SDS011;59936;51.490;5.436;2023-04-15T10:07:27;4.20;;;3.80;;
64641;SDS011;59936;51.490;5.436;2023-04-15T10:09:53;3.40;;;3.10;;
64641;SDS011;59936;51.490;5.436;2023-04-15T10:12:19;4.10;;;3.60;;
64641;SDS011;59936;51.490;5.436;2023-04-15T10:14:47;3.90;;;3.60;;
64641;SDS011;59936;51.490;5.436;2023-04-15T10:17:17;5.00;;;3.90;;
64641;SDS011;59936;51.490;5.436;2023-04-15T10:19:47;4.30;;;3.60;;
64641;SDS011;59936;51.490;5.436;2023-04-15T10:22:14;3.70;;;3.00;;
64641;SDS011;59936;51.490;5.436;2023-04-15T10:24:40;3.70;;;3.40;;
64641;SDS011;59936;51.490;5.436;2023-04-15T10:27:07;3.50;;;3.20;;
64641;SDS011;59936;51.490;5.436;2023-04-15T10:29:33;6.20;;;4.00;;
64641;SDS011;59936;51.490;5.436;2023-04-15T10:31:59;4.50;;;4.10;;
64641;SDS011;59936;51.490;5.436;2023-04-15T10:34:26;3.40;;;3.10;;
64641;SDS011;59936;51.490;5.436;2023-04-15T10:36:54;3.90;;;3.50;;
64641;SDS011;59936;51.490;5.436;2023-04-15T10:39:39;3.50;;;3.20;;
64641;SDS011;59936;51.490;5.436;2023-04-15T10:44:36;3.30;;;3.00;;
64641;SDS011;59936;51.490;5.436;2023-04-15T10:47:10;4.50;;;3.60;;
64641;SDS011;59936;51.490;5.436;2023-04-15T10:49:47;4.30;;;4.00;;
64641;SDS011;59936;51.490;5.436;2023-04-15T10:52:17;3.40;;;3.10;;
64641;SDS011;59936;51.490;5.436;2023-04-15T10:54:47;3.90;;;2.50;;
64641;SDS011;59936;51.490;5.436;2023-04-15T11:02:55;2.70;;;2.50;;
64641;SDS011;59936;51.490;5.436;2023-04-15T11:08:07;3.70;;;2.00;;
64641;SDS011;59936;51.490;5.436;2023-04-15T11:13:03;3.40;;;3.10;;
64641;SDS011;59936;51.490;5.436;2023-04-15T11:15:46;3.00;;;2.80;;
64641;SDS011;59936;51.490;5.436;2023-04-15T11:18:15;3.20;;;3.00;;
64641;SDS011;59936;51.490;5.436;2023-04-15T11:20:49;6.30;;;2.80;;
64641;SDS011;59936;51.490;5.436;2023-04-15T11:26:04;3.70;;;2.80;;
64641;SDS011;59936;51.490;5.436;2023-04-15T11:28:32;3.60;;;2.50;;
64641;SDS011;59936;51.490;5.436;2023-04-15T11:31:20;3.20;;;2.90;;
64641;SDS011;59936;51.490;5.436;2023-04-15T11:33:55;3.50;;;3.20;;
64641;SDS011;59936;51.490;5.436;2023-04-15T11:36:23;3.50;;;3.20;;
64641;SDS011;59936;51.490;5.436;2023-04-15T11:38:50;6.30;;;3.30;;
64641;SDS011;59936;51.490;5.436;2023-04-15T11:41:19;3.10;;;2.90;;
64641;SDS011;59936;51.490;5.436;2023-04-15T11:43:45;3.10;;;2.60;;
64641;SDS011;59936;51.490;5.436;2023-04-15T11:46:11;2.90;;;2.70;;
64641;SDS011;59936;51.490;5.436;2023-04-15T11:48:40;3.60;;;3.30;;
64641;SDS011;59936;51.490;5.436;2023-04-15T11:51:07;5.50;;;3.20;;
64641;SDS011;59936;51.490;5.436;2023-04-15T11:53:44;3.20;;;3.00;;
64641;SDS011;59936;51.490;5.436;2023-04-15T11:56:21;4.70;;;2.40;;
64641;SDS011;59936;51.490;5.436;2023-04-15T11:58:55;2.60;;;2.40;;
64641;SDS011;59936;51.490;5.436;2023-04-15T12:04:01;2.80;;;2.60;;
64641;SDS011;59936;51.490;5.436;2023-04-15T12:06:35;3.30;;;3.00;;
64641;SDS011;59936;51.490;5.436;2023-04-15T12:09:13;3.20;;;2.90;;
64641;SDS011;59936;51.490;5.436;2023-04-15T12:11:48;3.50;;;2.90;;
64641;SDS011;59936;51.490;5.436;2023-04-15T12:14:25;3.20;;;3.00;;
64641;SDS011;59936;51.490;5.436;2023-04-15T12:16:54;3.00;;;2.70;;
64641;SDS011;59936;51.490;5.436;2023-04-15T12:19:23;2.80;;;2.30;;
64641;SDS011;59936;51.490;5.436;2023-04-15T12:21:51;4.50;;;2.40;;
64641;SDS011;59936;51.490;5.436;2023-04-15T12:24:21;2.10;;;2.00;;
64641;SDS011;59936;51.490;5.436;2023-04-15T12:26:54;2.20;;;2.10;;
64641;SDS011;59936;51.490;5.436;2023-04-15T12:29:24;3.70;;;2.40;;
64641;SDS011;59936;51.490;5.436;2023-04-15T12:31:56;2.90;;;2.10;;
64641;SDS011;59936;51.490;5.436;2023-04-15T12:34:30;2.50;;;1.60;;
64641;SDS011;59936;51.490;5.436;2023-04-15T12:36:58;2.70;;;2.50;;
64641;SDS011;59936;51.490;5.436;2023-04-15T12:39:27;3.10;;;2.60;;
64641;SDS011;59936;51.490;5.436;2023-04-15T12:41:54;2.90;;;2.60;;
64641;SDS011;59936;51.490;5.436;2023-04-15T12:44:23;1.50;;;1.40;;
64641;SDS011;59936;51.490;5.436;2023-04-15T12:46:55;3.30;;;3.00;;
64641;SDS011;59936;51.490;5.436;2023-04-15T12:49:21;3.00;;;2.70;;
64641;SDS011;59936;51.490;5.436;2023-04-15T12:51:49;6.20;;;3.00;;
64641;SDS011;59936;51.490;5.436;2023-04-15T12:54:16;3.10;;;2.40;;
64641;SDS011;59936;51.490;5.436;2023-04-15T12:56:43;3.50;;;2.70;;
64641;SDS011;59936;51.490;5.436;2023-04-15T12:59:13;2.90;;;2.70;;
64641;SDS011;59936;51.490;5.436;2023-04-15T13:01:40;2.90;;;2.70;;
64641;SDS011;59936;51.490;5.436;2023-04-15T13:04:06;3.00;;;2.80;;
64641;SDS011;59936;51.490;5.436;2023-04-15T13:06:32;4.10;;;2.50;;
64641;SDS011;59936;51.490;5.436;2023-04-15T13:09:01;3.10;;;2.80;;
64641;SDS011;59936;51.490;5.436;2023-04-15T13:11:28;2.50;;;2.30;;
64641;SDS011;59936;51.490;5.436;2023-04-15T13:13:54;2.70;;;2.50;;
64641;SDS011;59936;51.490;5.436;2023-04-15T13:16:21;3.70;;;2.60;;
64641;SDS011;59936;51.490;5.436;2023-04-15T13:18:47;2.90;;;2.40;;
64641;SDS011;59936;51.490;5.436;2023-04-15T13:21:13;2.30;;;2.20;;
64641;SDS011;59936;51.490;5.436;2023-04-15T13:23:42;3.60;;;2.70;;
64641;SDS011;59936;51.490;5.436;2023-04-15T13:26:08;2.60;;;2.30;;
64641;SDS011;59936;51.490;5.436;2023-04-15T13:28:34;2.60;;;2.40;;
64641;SDS011;59936;51.490;5.436;2023-04-15T13:31:00;2.10;;;2.00;;
64641;SDS011;59936;51.490;5.436;2023-04-15T13:33:26;2.70;;;2.50;;
64641;SDS011;59936;51.490;5.436;2023-04-15T13:35:52;2.40;;;2.20;;
64641;SDS011;59936;51.490;5.436;2023-04-15T13:38:18;3.30;;;2.40;;
64641;SDS011;59936;51.490;5.436;2023-04-15T13:40:44;2.20;;;2.00;;
64641;SDS011;59936;51.490;5.436;2023-04-15T13:43:10;2.20;;;2.00;;
64641;SDS011;59936;51.490;5.436;2023-04-15T13:45:35;2.10;;;2.00;;
64641;SDS011;59936;51.490;5.436;2023-04-15T13:48:01;3.50;;;2.20;;
64641;SDS011;59936;51.490;5.436;2023-04-15T13:50:28;3.40;;;2.00;;
64641;SDS011;59936;51.490;5.436;2023-04-15T13:52:53;3.50;;;2.40;;
64641;SDS011;59936;51.490;5.436;2023-04-15T13:55:19;4.20;;;2.30;;
64641;SDS011;59936;51.490;5.436;2023-04-15T13:57:45;5.30;;;2.40;;
64641;SDS011;59936;51.490;5.436;2023-04-15T14:00:11;2.50;;;2.30;;
64641;SDS011;59936;51.490;5.436;2023-04-15T14:02:38;3.20;;;2.40;;
64641;SDS011;59936;51.490;5.436;2023-04-15T14:05:04;1.40;;;1.30;;
64641;SDS011;59936;51.490;5.436;2023-04-15T14:07:30;2.60;;;2.20;;
64641;SDS011;59936;51.490;5.436;2023-04-15T14:09:56;1.70;;;1.60;;
64641;SDS011;59936;51.490;5.436;2023-04-15T14:12:25;3.60;;;2.00;;
64641;SDS011;59936;51.490;5.436;2023-04-15T14:14:51;2.30;;;2.10;;
64641;SDS011;59936;51.490;5.436;2023-04-15T14:17:17;1.70;;;1.60;;
64641;SDS011;59936;51.490;5.436;2023-04-15T14:19:48;2.40;;;2.20;;
64641;SDS011;59936;51.490;5.436;2023-04-15T14:22:14;4.00;;;2.00;;
64641;SDS011;59936;51.490;5.436;2023-04-15T14:24:43;1.70;;;1.60;;
64641;SDS011;59936;51.490;5.436;2023-04-15T14:27:09;2.40;;;1.80;;
64641;SDS011;59936;51.490;5.436;2023-04-15T14:29:35;2.30;;;2.10;;
64641;SDS011;59936;51.490;5.436;2023-04-15T14:32:01;1.50;;;1.40;;
64641;SDS011;59936;51.490;5.436;2023-04-15T14:34:27;1.50;;;1.40;;
64641;SDS011;59936;51.490;5.436;2023-04-15T14:36:53;1.90;;;1.50;;
64641;SDS011;59936;51.490;5.436;2023-04-15T14:39:19;2.60;;;1.90;;
64641;SDS011;59936;51.490;5.436;2023-04-15T14:41:45;5.30;;;1.80;;
64641;SDS011;59936;51.490;5.436;2023-04-15T14:44:14;3.60;;;2.00;;
64641;SDS011;59936;51.490;5.436;2023-04-15T14:46:40;0.90;;;0.90;;
64641;SDS011;59936;51.490;5.436;2023-04-15T14:49:06;3.10;;;1.90;;
64641;SDS011;59936;51.490;5.436;2023-04-15T14:51:32;2.00;;;1.70;;
64641;SDS011;59936;51.490;5.436;2023-04-15T14:53:58;1.60;;;1.50;;
64641;SDS011;59936;51.490;5.436;2023-04-15T14:56:24;2.30;;;1.20;;
64641;SDS011;59936;51.490;5.436;2023-04-15T14:58:50;2.80;;;1.80;;
64641;SDS011;59936;51.490;5.436;2023-04-15T15:01:16;1.40;;;1.20;;
64641;SDS011;59936;51.490;5.436;2023-04-15T15:06:07;2.05;;;1.45;;
64641;SDS011;59936;51.490;5.436;2023-04-15T15:08:33;2.00;;;1.50;;
64641;SDS011;59936;51.490;5.436;2023-04-15T15:13:25;1.55;;;1.30;;
64641;SDS011;59936;51.490;5.436;2023-04-15T15:15:51;5.70;;;1.50;;
64641;SDS011;59936;51.490;5.436;2023-04-15T15:18:17;2.30;;;1.50;;
64641;SDS011;59936;51.490;5.436;2023-04-15T15:23:09;1.45;;;1.10;;
64641;SDS011;59936;51.490;5.436;2023-04-15T15:28:00;1.40;;;0.90;;
64641;SDS011;59936;51.490;5.436;2023-04-15T15:30:29;1.40;;;1.30;;
64641;SDS011;59936;51.490;5.436;2023-04-15T15:35:20;4.35;;;1.35;;
64641;SDS011;59936;51.490;5.436;2023-04-15T15:37:46;1.20;;;1.10;;
64641;SDS011;59936;51.490;5.436;2023-04-15T15:42:38;1.30;;;1.20;;
64641;SDS011;59936;51.490;5.436;2023-04-15T15:47:30;3.50;;;1.40;;
64641;SDS011;59936;51.490;5.436;2023-04-15T15:50:01;1.90;;;1.40;;